createdAt,value
2022-10-28T00:04:08.965Z,3.43
2022-10-28T00:14:13.765Z,2.33
2022-10-28T00:24:16.935Z,2.27
2022-10-28T00:34:22.818Z,2.83
2022-10-28T00:44:49.374Z,2.40
2022-10-28T00:54:55.105Z,2.73
2022-10-28T01:04:58.196Z,2.47
2022-10-28T01:15:11.702Z,2.70
2022-10-28T01:25:37.805Z,2.30
2022-10-28T01:35:50.596Z,2.10
2022-10-28T01:46:00.297Z,2.70
2022-10-28T01:56:10.825Z,2.67
2022-10-28T02:06:18.433Z,2.83
2022-10-28T02:26:36.131Z,3.23
2022-10-28T02:36:44.827Z,2.33
2022-10-28T02:46:51.100Z,2.33
2022-10-28T02:57:00.971Z,2.87
2022-10-28T03:07:03.906Z,2.20
2022-10-28T03:17:08.811Z,2.80
2022-10-28T03:27:11.921Z,2.90
2022-10-28T03:37:16.225Z,2.67
2022-10-28T03:47:19.225Z,2.60
2022-10-28T03:57:24.986Z,2.60
2022-10-28T04:07:28.035Z,3.03
2022-10-28T04:17:32.386Z,3.03
2022-10-28T04:27:35.540Z,2.93
2022-10-28T04:37:39.891Z,2.80
2022-10-28T04:47:42.816Z,2.93
2022-10-28T04:57:54.605Z,3.13
2022-10-28T05:07:57.828Z,2.77
2022-10-28T05:18:02.154Z,2.90
2022-10-28T05:28:05.907Z,3.50
2022-10-28T05:38:10.301Z,4.13
2022-10-28T05:48:13.263Z,3.43
2022-10-28T05:58:18.003Z,2.47
2022-10-28T06:08:20.968Z,3.50
2022-10-28T06:18:24.299Z,2.87
2022-10-28T06:28:27.758Z,3.17
2022-10-28T06:38:32.038Z,2.90
2022-10-28T06:48:36.521Z,2.97
2022-10-28T06:58:40.917Z,3.50
2022-10-28T07:08:43.977Z,3.23
2022-10-28T07:18:48.329Z,2.97
2022-10-28T07:28:51.371Z,3.63
2022-10-28T07:38:55.645Z,3.37
2022-10-28T07:48:58.677Z,3.53
2022-10-28T07:59:02.872Z,2.60
2022-10-28T08:09:05.901Z,3.33
2022-10-28T08:19:12.058Z,3.57
2022-10-28T08:29:15.163Z,2.80
2022-10-28T08:39:19.494Z,3.03
2022-10-28T08:49:24.932Z,3.17
2022-10-28T08:59:34.971Z,3.23
2022-10-28T09:09:38.193Z,2.60
2022-10-28T09:19:48.853Z,2.70
2022-10-28T09:29:59.919Z,3.30
2022-10-28T09:40:14.848Z,2.70
2022-10-28T09:50:21.949Z,2.40
2022-10-28T10:00:26.406Z,2.85
2022-10-28T10:10:33.652Z,2.65
2022-10-28T10:20:50.610Z,2.25
2022-10-28T10:40:59.233Z,2.20
2022-10-28T10:51:07.895Z,4.80
2022-10-28T11:01:20.758Z,2.85
2022-10-28T11:11:32.646Z,2.15
2022-10-28T11:21:52.973Z,2.42
2022-10-28T11:32:15.086Z,3.15
2022-10-28T11:42:31.713Z,2.00
2022-10-28T11:52:50.781Z,2.38
2022-10-28T12:03:13.422Z,2.50
2022-10-28T12:13:29.210Z,2.13
2022-10-28T12:23:37.407Z,2.27
2022-10-28T12:33:45.035Z,2.22
2022-10-28T12:43:54.267Z,2.20
2022-10-28T12:54:01.864Z,2.55
2022-10-28T13:04:06.595Z,1.80
2022-10-28T13:14:21.927Z,2.53
2022-10-28T13:24:33.664Z,2.83
2022-10-28T13:34:40.396Z,2.55
2022-10-28T13:44:55.481Z,2.00
2022-10-28T13:54:59.745Z,2.10
2022-10-28T14:05:07.273Z,3.42
2022-10-28T14:15:21.959Z,2.42
2022-10-28T14:26:05.569Z,2.63
2022-10-28T14:36:32.322Z,2.38
2022-10-28T14:46:52.858Z,2.92
2022-10-28T14:56:56.993Z,2.78
2022-10-28T15:07:01.875Z,3.42
2022-10-28T15:17:13.816Z,2.70
2022-10-28T15:27:18.840Z,2.20
2022-10-28T15:37:24.017Z,3.13
2022-10-28T15:47:33.341Z,2.70
2022-10-28T15:57:48.314Z,2.50
2022-10-28T16:07:52.969Z,3.17
2022-10-28T16:17:56.590Z,6.88
2022-10-28T16:28:01.482Z,5.00
2022-10-28T16:38:04.606Z,3.65
2022-10-28T16:48:13.034Z,3.95
2022-10-28T16:58:16.263Z,3.03
2022-10-28T17:08:42.104Z,2.97
2022-10-28T17:18:43.720Z,3.00
2022-10-28T17:28:52.107Z,2.53
2022-10-28T17:38:56.081Z,2.92
2022-10-28T17:49:00.444Z,3.10
2022-10-28T17:59:04.460Z,6.32
2022-10-28T18:09:12.789Z,4.97
2022-10-28T18:19:16.083Z,4.15
2022-10-28T18:29:20.300Z,4.25
2022-10-28T18:39:23.292Z,3.38
2022-10-28T18:49:27.705Z,4.20
2022-10-28T18:59:30.809Z,3.15
2022-10-28T19:09:35.160Z,4.53
2022-10-28T19:19:39.325Z,4.05
2022-10-28T19:29:46.286Z,4.68
2022-10-28T19:39:55.677Z,4.65
2022-10-28T19:50:00.988Z,4.30
2022-10-28T20:00:04.815Z,5.90
2022-10-28T20:10:16.518Z,5.33
2022-10-28T20:20:19.593Z,5.87
2022-10-28T20:30:23.979Z,5.53
2022-10-28T20:40:27.191Z,5.43
2022-10-28T20:50:31.779Z,5.70
2022-10-28T21:00:34.931Z,5.60
2022-10-28T21:10:46.038Z,5.87
2022-10-28T21:20:49.078Z,5.50
2022-10-28T21:31:00.297Z,5.23
2022-10-28T21:41:04.848Z,4.67
2022-10-28T21:51:13.638Z,5.43
2022-10-28T22:01:19.677Z,4.83
2022-10-28T22:11:25.169Z,5.53
2022-10-28T22:21:30.325Z,4.73
2022-10-28T22:31:34.477Z,4.90
2022-10-28T22:41:37.370Z,5.10
2022-10-28T22:51:41.729Z,4.87
2022-10-28T23:01:44.974Z,4.97
2022-10-28T23:11:49.394Z,4.67
2022-10-28T23:21:52.888Z,4.27
2022-10-28T23:31:57.362Z,4.70
2022-10-28T23:42:00.412Z,4.90
2022-10-28T23:52:05.148Z,5.10
